Oakland, Arkansas
Current Conditions -  °F | °C
As of 8:53 AM on Friday 19 Dec 2014 (Local Time) from KBPK Reporting Station
Haze Haze  
Wind Chill:   Ceiling: 500
Heat Index:   Visibility: 3mi
Dew Point:   Wind: 5mph
Humidity: 96%   Direction: 130°SE
Pressure: 30.26"   Gusts: NA
Location:  36.46°N, 92.57°W
Report Text: KBPK 191453Z AUTO 13004KT 3SM BR OVC005 03/02 A3026 RMK AO2 SLP253 T00280022 51008
Loading
Personal Weather Stations






























Interactive Weather Map New forecast layout! Learn more

10-Day Weather Forecast

Advertisements
Track Severe Weather on mobile